Time;durP1;ratioP1;P1;durP2;ratioP2;P2;SDS_P1;SDS_P2;PMS_P1;PMS_P2;Temp;Humidity;BMP_temperature;BMP_pressure;BME280_temperature;BME280_humidity;BME280_pressure;Samples;Min_cycle;Max_cycle;Signal;HPM_P1;HPM_P2
2021/12/23 00:01:53;;;;;;;6.78;2.60;;;;;;;-7.64;52.17;101402.97;1714977;82;21031;-57
2021/12/23 00:04:20;;;;;;;6.28;2.75;;;;;;;-7.69;52.51;101404.62;1715254;82;21567;-58
2021/12/23 00:06:46;;;;;;;5.25;2.25;;;;;;;-7.65;52.48;101403.80;1681043;83;21079;-58
2021/12/23 00:09:13;;;;;;;4.85;1.82;;;;;;;-7.53;52.32;101409.06;1702421;82;21034;-58
2021/12/23 00:11:41;;;;;;;7.95;2.60;;;;;;;-7.44;52.26;101405.75;1729747;80;21216;-58
2021/12/23 00:14:09;;;;;;;7.08;2.47;;;;;;;-7.33;51.86;101415.67;1705309;81;21599;-58
2021/12/23 00:16:55;;;;;;;6.33;2.50;;;;;;;-7.23;51.25;101415.75;1737541;80;21000;-57
2021/12/23 00:23:41;;;;;;;5.85;2.45;;;;;;;-7.25;51.19;101416.16;1727777;81;21059;-58
2021/12/23 00:26:06;;;;;;;5.65;2.40;;;;;;;-7.33;51.29;101416.07;1758370;80;21124;-58
2021/12/23 00:28:33;;;;;;;9.55;3.17;;;;;;;-7.36;51.48;101422.03;1753189;79;21577;-58
2021/12/23 00:31:00;;;;;;;7.55;2.77;;;;;;;-7.39;51.57;101418.16;1753135;80;20974;-58
2021/12/23 00:33:28;;;;;;;13.22;2.80;;;;;;;-7.38;51.76;101420.28;1722666;80;21080;-58
2021/12/23 00:35:55;;;;;;;5.78;2.22;;;;;;;-7.34;51.86;101424.17;1758548;80;20938;-59
2021/12/23 00:38:28;;;;;;;7.45;2.70;;;;;;;-7.30;51.76;101428.47;1717647;81;21188;-59
2021/12/23 00:40:52;;;;;;;7.95;2.98;;;;;;;-7.26;51.86;101424.66;1722357;81;21045;-58
2021/12/23 00:43:20;;;;;;;6.33;3.00;;;;;;;-7.17;52.01;101424.77;1726908;81;21025;-57
2021/12/23 00:45:47;;;;;;;7.58;2.65;;;;;;;-7.14;51.76;101425.65;1691706;81;21602;-57
2021/12/23 00:48:15;;;;;;;8.90;2.58;;;;;;;-7.12;51.73;101421.83;1693399;83;21141;-58
2021/12/23 00:50:43;;;;;;;8.20;3.17;;;;;;;-7.04;51.86;101424.04;1694526;83;22471;-58
2021/12/23 00:53:12;;;;;;;8.63;3.40;;;;;;;-6.94;51.81;101427.55;1699255;83;21567;-57
2021/12/23 00:55:39;;;;;;;6.70;3.10;;;;;;;-6.89;51.50;101425.00;1703713;82;21623;-58
2021/12/23 00:58:06;;;;;;;7.35;3.17;;;;;;;-6.88;51.63;101431.84;1685363;83;21165;-57
2021/12/23 01:00:33;;;;;;;6.53;2.95;;;;;;;-6.84;51.71;101431.89;1700408;82;21085;-57
2021/12/23 01:03:00;;;;;;;6.58;3.42;;;;;;;-6.81;51.87;101428.05;1676737;82;21665;-58
2021/12/23 01:05:27;;;;;;;8.10;3.60;;;;;;;-6.76;52.00;101424.27;1694511;82;21581;-58
2021/12/23 01:07:54;;;;;;;6.45;3.58;;;;;;;-6.69;51.96;101429.89;1678015;82;21113;-58
2021/12/23 01:10:23;;;;;;;8.38;3.72;;;;;;;-6.72;51.68;101429.86;1695600;82;21094;-58
2021/12/23 01:12:53;;;;;;;8.48;3.83;;;;;;;-6.77;51.72;101430.25;1701634;82;21635;-58
2021/12/23 01:15:39;;;;;;;8.83;3.87;;;;;;;-6.78;51.91;101424.67;1702610;82;21816;-59
2021/12/23 01:17:56;;;;;;;9.75;3.92;;;;;;;-6.82;52.25;101429.35;1700064;82;21062;-59
2021/12/23 01:20:31;;;;;;;6.53;3.30;;;;;;;-6.82;52.34;101423.80;1691257;82;21040;-56
2021/12/23 01:23:00;;;;;;;5.25;2.77;;;;;;;-6.83;52.23;101428.91;1690459;83;21055;-57
2021/12/23 01:25:26;;;;;;;7.15;3.42;;;;;;;-6.98;51.95;101429.19;1669304;83;21347;-57
2021/12/23 01:27:54;;;;;;;6.60;2.95;;;;;;;-7.13;52.57;101437.61;1673627;83;21588;-59
2021/12/23 01:30:21;;;;;;;6.72;2.80;;;;;;;-7.24;52.96;101435.36;1684027;83;21071;-59
2021/12/23 01:32:49;;;;;;;5.33;2.15;;;;;;;-7.36;53.29;101428.42;1715166;80;21579;-57
2021/12/23 01:35:16;;;;;;;7.28;2.50;;;;;;;-7.40;53.56;101428.36;1740199;80;21053;-57
2021/12/23 01:37:43;;;;;;;5.47;2.50;;;;;;;-7.47;54.21;101433.41;1739965;80;21515;-57
2021/12/23 01:40:10;;;;;;;6.72;2.50;;;;;;;-7.46;53.57;101430.45;1741552;80;21065;-59
2021/12/23 01:42:39;;;;;;;6.35;3.05;;;;;;;-7.44;53.79;101433.02;1738063;80;21611;-57
2021/12/23 01:45:16;;;;;;;6.22;2.58;;;;;;;-7.37;54.34;101429.25;1735520;80;21029;-59
2021/12/23 01:47:43;;;;;;;7.17;3.10;;;;;;;-7.31;54.65;101426.77;1737999;80;21022;-57
2021/12/23 01:50:10;;;;;;;8.10;3.35;;;;;;;-7.29;54.78;101429.34;1742527;80;21551;-57
2021/12/23 01:52:38;;;;;;;7.28;3.17;;;;;;;-7.39;54.35;101432.22;1714021;82;21068;-57
2021/12/23 01:55:10;;;;;;;6.35;2.77;;;;;;;-7.43;54.62;101432.16;1747484;80;21054;-57
2021/12/23 01:57:36;;;;;;;7.90;2.50;;;;;;;-7.48;54.33;101447.05;1739331;80;21183;-58
2021/12/23 02:00:08;;;;;;;7.55;3.12;;;;;;;-7.53;53.48;101441.42;1716874;80;21488;-57
2021/12/23 02:02:36;;;;;;;8.23;3.37;;;;;;;-7.60;53.90;101433.25;1737371;80;21056;-57
2021/12/23 02:05:04;;;;;;;7.37;3.45;;;;;;;-7.62;54.17;101447.72;1716560;80;21475;-58
2021/12/23 02:07:32;;;;;;;6.42;3.05;;;;;;;-7.64;54.53;101439.19;1737390;80;21070;-57
2021/12/23 02:09:59;;;;;;;7.17;3.45;;;;;;;-7.65;54.70;101435.75;1734424;80;20990;-57
2021/12/23 02:12:25;;;;;;;6.15;2.75;;;;;;;-7.66;54.59;101446.41;1736531;80;21097;-58
2021/12/23 02:14:51;;;;;;;6.75;3.02;;;;;;;-7.69;54.62;101445.08;1744398;80;21014;-58
2021/12/23 02:17:18;;;;;;;7.92;3.37;;;;;;;-7.70;54.69;101443.78;1738478;80;21140;-58
2021/12/23 02:19:44;;;;;;;7.78;2.95;;;;;;;-7.71;54.56;101446.77;1738146;80;21069;-57
2021/12/23 02:22:10;;;;;;;6.08;2.75;;;;;;;-7.69;54.45;101442.95;1752273;80;21042;-57
2021/12/23 02:24:37;;;;;;;8.88;3.35;;;;;;;-7.70;54.44;101437.39;1715926;80;21522;-58
2021/12/23 02:27:05;;;;;;;7.35;3.42;;;;;;;-7.71;54.34;101432.71;1715734;80;21073;-58
2021/12/23 02:29:31;;;;;;;6.47;2.80;;;;;;;-7.67;54.24;101434.88;1749140;80;21112;-58
2021/12/23 02:31:58;;;;;;;8.13;3.62;;;;;;;-7.63;54.16;101433.21;1747935;80;21276;-58
2021/12/23 02:34:25;;;;;;;8.68;3.25;;;;;;;-7.63;53.77;101437.05;1744819;80;21050;-58
2021/12/23 02:36:54;;;;;;;7.30;2.80;;;;;;;-7.68;53.84;101435.31;1722611;80;21746;-58
2021/12/23 02:39:22;;;;;;;6.90;3.00;;;;;;;-7.70;53.75;101438.28;1750810;80;21054;-57
2021/12/23 02:41:48;;;;;;;7.95;3.45;;;;;;;-7.64;53.78;101437.91;1749308;80;21141;-57
2021/12/23 02:44:17;;;;;;;7.22;2.85;;;;;;;-7.55;53.72;101438.84;1685282;82;21569;-57
2021/12/23 02:46:43;;;;;;;7.45;3.15;;;;;;;-7.46;53.43;101439.39;1744611;80;21513;-58
2021/12/23 02:49:09;;;;;;;7.70;3.58;;;;;;;-7.40;52.89;101440.72;1747395;80;21085;-57
2021/12/23 02:51:36;;;;;;;8.80;3.20;;;;;;;-7.39;52.92;101441.17;1747113;80;21018;-58
2021/12/23 02:54:03;;;;;;;7.37;3.33;;;;;;;-7.41;52.74;101438.14;1747042;80;21110;-58
2021/12/23 02:56:30;;;;;;;9.40;3.27;;;;;;;-7.43;52.70;101436.87;1745270;80;21121;-58
2021/12/23 02:58:56;;;;;;;7.72;3.42;;;;;;;-7.43;52.90;101438.55;1753846;80;21718;-57
2021/12/23 03:01:23;;;;;;;7.55;3.67;;;;;;;-7.41;52.83;101433.03;1740214;80;21050;-57
2021/12/23 03:03:49;;;;;;;7.33;3.02;;;;;;;-7.39;52.81;101440.32;1710449;80;21062;-57
2021/12/23 03:06:18;;;;;;;6.40;3.15;;;;;;;-7.41;52.80;101437.74;1738552;80;22701;-58
2021/12/23 03:08:54;;;;;;;7.00;3.17;;;;;;;-7.54;53.01;101445.69;1752568;80;21082;-58
2021/12/23 03:11:22;;;;;;;8.23;3.20;;;;;;;-7.66;53.41;101445.55;1747778;80;21112;-58
2021/12/23 03:13:49;;;;;;;6.97;2.90;;;;;;;-7.85;54.01;101440.61;1750276;80;21060;-58
2021/12/23 03:16:22;;;;;;;7.35;3.37;;;;;;;-7.99;54.47;101451.09;1749919;80;21038;-58
2021/12/23 03:18:50;;;;;;;8.50;3.67;;;;;;;-8.09;54.76;101457.77;1750569;80;21072;-58
2021/12/23 03:21:17;;;;;;;8.13;3.42;;;;;;;-8.13;54.96;101454.74;1721016;81;21731;-58
2021/12/23 03:23:43;;;;;;;18.02;7.72;;;;;;;-8.17;55.08;101455.09;1718496;81;21068;-58
2021/12/23 03:26:10;;;;;;;24.87;12.03;;;;;;;-8.18;55.11;101456.38;1745517;80;21479;-57
2021/12/23 03:28:36;;;;;;;15.43;8.93;;;;;;;-8.19;54.97;101450.39;1718575;81;21053;-57
2021/12/23 03:31:03;;;;;;;14.65;6.53;;;;;;;-8.22;54.78;101449.94;1744331;80;21606;-58
2021/12/23 03:33:30;;;;;;;8.43;4.78;;;;;;;-8.19;54.76;101447.84;1744904;80;21042;-57
2021/12/23 03:35:56;;;;;;;9.53;4.25;;;;;;;-8.19;54.48;101444.00;1720325;80;22269;-58
2021/12/23 03:38:23;;;;;;;11.78;6.08;;;;;;;-8.21;54.27;101448.23;1747312;80;21065;-58
2021/12/23 03:40:50;;;;;;;8.80;5.40;;;;;;;-8.29;54.19;101444.71;1746094;81;21092;-57
2021/12/23 03:43:17;;;;;;;9.98;5.20;;;;;;;-8.35;54.19;101440.78;1746887;80;21102;-57
2021/12/23 03:45:45;;;;;;;7.90;4.58;;;;;;;-8.33;54.48;101445.52;1716283;81;21617;-58
2021/12/23 03:48:14;;;;;;;10.20;4.50;;;;;;;-8.29;54.39;101440.88;1743935;80;21089;-58
2021/12/23 03:50:41;;;;;;;7.62;4.17;;;;;;;-8.28;54.00;101446.02;1747888;80;21053;-58
2021/12/23 03:53:07;;;;;;;8.38;4.30;;;;;;;-8.30;53.99;101455.78;1715069;80;21077;-58
2021/12/23 03:55:34;;;;;;;10.32;5.22;;;;;;;-8.33;54.18;101459.56;1718859;81;21198;-58
2021/12/23 03:58:01;;;;;;;11.10;5.37;;;;;;;-8.40;54.38;101460.73;1709684;82;21115;-59
2021/12/23 04:00:27;;;;;;;8.15;4.60;;;;;;;-8.45;54.55;101465.38;1665693;84;21511;-58
2021/12/23 04:02:54;;;;;;;7.80;4.17;;;;;;;-8.51;54.67;101469.09;1686858;83;21062;-58
2021/12/23 04:05:21;;;;;;;10.05;4.20;;;;;;;-8.56;54.76;101469.44;1675524;84;21014;-57
2021/12/23 04:07:48;;;;;;;6.78;3.52;;;;;;;-8.55;54.98;101474.57;1695973;83;21139;-58
2021/12/23 04:10:18;;;;;;;6.53;3.33;;;;;;;-8.55;54.84;101472.45;1694438;83;21654;-58
2021/12/23 04:12:45;;;;;;;8.25;3.47;;;;;;;-8.55;54.94;101473.73;1697239;82;21070;-59
2021/12/23 04:15:12;;;;;;;8.13;3.47;;;;;;;-8.58;55.01;101469.41;1692816;82;21554;-59
2021/12/23 04:17:38;;;;;;;7.60;3.45;;;;;;;-8.54;54.90;101475.42;1692938;83;21074;-59
2021/12/23 04:20:16;;;;;;;8.13;3.45;;;;;;;-8.56;54.76;101481.78;1695096;82;21194;-58
2021/12/23 04:22:41;;;;;;;10.30;3.83;;;;;;;-8.63;54.79;101483.80;1700585;82;21086;-58
2021/12/23 04:25:09;;;;;;;7.67;3.37;;;;;;;-8.71;54.84;101482.38;1737362;80;21128;-58
2021/12/23 04:27:35;;;;;;;8.95;3.98;;;;;;;-8.78;54.96;101480.14;1738634;81;21019;-59
2021/12/23 04:30:05;;;;;;;9.40;3.77;;;;;;;-8.80;55.31;101477.14;1714715;82;21065;-58
2021/12/23 04:32:31;;;;;;;8.58;3.98;;;;;;;-8.73;55.41;101480.22;1741816;80;21128;-57
2021/12/23 04:34:58;;;;;;;8.15;3.60;;;;;;;-8.65;54.99;101488.02;1716446;82;21078;-59
2021/12/23 04:37:24;;;;;;;11.20;4.05;;;;;;;-8.65;55.00;101486.32;1732858;80;21121;-58
2021/12/23 04:39:51;;;;;;;8.88;4.00;;;;;;;-8.55;54.90;101498.82;1738139;80;21476;-58
2021/12/23 04:42:17;;;;;;;8.33;3.67;;;;;;;-8.48;54.81;101497.22;1737971;80;21098;-58
2021/12/23 04:44:43;;;;;;;7.78;3.35;;;;;;;-8.46;54.43;101490.45;1740188;80;21108;-58
2021/12/23 04:47:10;;;;;;;10.00;3.60;;;;;;;-8.49;54.39;101492.55;1739667;81;21476;-58
2021/12/23 04:49:36;;;;;;;8.10;3.70;;;;;;;-8.53;54.44;101499.70;1743640;80;21558;-58
2021/12/23 04:52:03;;;;;;;9.93;4.25;;;;;;;-8.55;54.43;101495.42;1736868;81;21051;-58
2021/12/23 04:54:30;;;;;;;9.03;4.10;;;;;;;-8.55;54.58;101503.08;1739370;80;21108;-58
2021/12/23 04:56:57;;;;;;;9.35;4.00;;;;;;;-8.56;54.42;101498.80;1737748;80;21942;-59
2021/12/23 04:59:23;;;;;;;10.10;4.75;;;;;;;-8.58;54.51;101498.77;1739855;80;21016;-58
2021/12/23 05:01:50;;;;;;;10.32;4.83;;;;;;;-8.63;54.58;101500.38;1712657;82;21112;-59
2021/12/23 05:04:16;;;;;;;11.00;4.40;;;;;;;-8.64;54.71;101498.26;1715383;82;21157;-59
2021/12/23 05:06:42;;;;;;;7.70;3.92;;;;;;;-8.66;54.84;101506.28;1740152;81;21066;-58
2021/12/23 05:09:09;;;;;;;7.85;3.90;;;;;;;-8.67;54.98;101506.28;1742799;81;21988;-60
2021/12/23 05:11:35;;;;;;;8.88;4.40;;;;;;;-8.64;55.13;101504.64;1737762;80;21096;-58
2021/12/23 05:14:02;;;;;;;9.03;4.72;;;;;;;-8.63;55.22;101503.78;1740479;81;21515;-58
2021/12/23 05:16:30;;;;;;;8.53;4.33;;;;;;;-8.61;55.30;101505.09;1710847;81;21774;-57
2021/12/23 05:18:56;;;;;;;8.90;4.50;;;;;;;-8.55;55.27;101506.48;1710624;82;21053;-58
2021/12/23 05:21:23;;;;;;;8.60;4.35;;;;;;;-8.51;55.15;101508.23;1737638;80;21149;-59
2021/12/23 05:23:49;;;;;;;8.60;3.67;;;;;;;-8.50;55.08;101509.96;1738210;81;20990;-58
2021/12/23 05:26:16;;;;;;;9.85;4.22;;;;;;;-8.51;54.86;101504.41;1739877;81;21030;-58
2021/12/23 05:28:42;;;;;;;9.65;4.28;;;;;;;-8.58;54.67;101507.70;1714235;81;21077;-58
2021/12/23 05:31:08;;;;;;;8.33;4.30;;;;;;;-8.70;54.84;101505.80;1713795;82;21026;-58
2021/12/23 05:33:35;;;;;;;8.25;3.85;;;;;;;-8.76;55.22;101513.34;1738432;81;21116;-58
2021/12/23 05:36:02;;;;;;;10.50;4.33;;;;;;;-8.74;55.35;101514.25;1740477;82;21023;-58
2021/12/23 05:38:28;;;;;;;10.38;4.03;;;;;;;-8.69;55.26;101518.13;1740324;80;21070;-58
2021/12/23 05:40:55;;;;;;;12.47;4.87;;;;;;;-8.66;55.12;101519.46;1741460;80;21041;-58
2021/12/23 05:43:21;;;;;;;9.68;4.83;;;;;;;-8.62;55.17;101523.80;1739914;80;21034;-58
2021/12/23 05:45:48;;;;;;;8.40;3.87;;;;;;;-8.57;55.07;101524.73;1737917;80;22895;-59
2021/12/23 05:48:15;;;;;;;9.50;3.62;;;;;;;-8.51;54.96;101520.14;1737800;81;21057;-58
2021/12/23 05:50:41;;;;;;;8.93;3.65;;;;;;;-8.48;54.83;101518.92;1714844;82;22442;-58
2021/12/23 05:53:09;;;;;;;10.13;5.12;;;;;;;-8.48;54.71;101518.50;1711732;82;21045;-58
2021/12/23 05:55:36;;;;;;;7.78;3.77;;;;;;;-8.49;54.75;101525.73;1741496;80;21551;-59
2021/12/23 05:58:03;;;;;;;10.23;4.72;;;;;;;-8.49;54.69;101528.68;1738787;80;21116;-58
2021/12/23 06:00:32;;;;;;;10.05;5.28;;;;;;;-8.53;54.55;101527.77;1735946;80;21504;-59
2021/12/23 06:02:59;;;;;;;11.43;4.40;;;;;;;-8.56;54.57;101531.55;1709319;82;22137;-57
2021/12/23 06:05:25;;;;;;;8.48;4.72;;;;;;;-8.57;54.61;101534.95;1740288;81;21033;-59
2021/12/23 06:07:52;;;;;;;9.00;4.58;;;;;;;-8.59;54.63;101527.66;1739414;81;21466;-59
2021/12/23 06:10:19;;;;;;;8.13;4.47;;;;;;;-8.59;54.61;101527.66;1740749;81;21066;-58
2021/12/23 06:12:46;;;;;;;10.82;4.87;;;;;;;-8.55;54.50;101532.00;1739422;80;21030;-59
2021/12/23 06:15:13;;;;;;;11.20;5.17;;;;;;;-8.52;54.23;101537.16;1711711;82;20987;-58
2021/12/23 06:17:39;;;;;;;10.70;4.65;;;;;;;-8.54;54.05;101535.40;1734581;80;21626;-59
2021/12/23 06:20:07;;;;;;;8.13;4.40;;;;;;;-8.57;53.86;101537.50;1712245;82;21014;-59
2021/12/23 06:22:35;;;;;;;9.58;4.50;;;;;;;-8.61;53.90;101528.94;1714992;81;21135;-60
2021/12/23 06:25:03;;;;;;;8.48;4.62;;;;;;;-8.64;53.87;101528.87;1742255;80;21041;-58
2021/12/23 06:27:29;;;;;;;10.13;5.03;;;;;;;-8.66;53.98;101527.97;1744002;80;21085;-58
2021/12/23 06:29:56;;;;;;;11.85;5.00;;;;;;;-8.68;53.99;101527.09;1741767;80;21631;-57
2021/12/23 06:32:22;;;;;;;12.35;5.90;;;;;;;-8.72;53.92;101530.44;1719000;81;21065;-57
2021/12/23 06:34:49;;;;;;;12.10;5.30;;;;;;;-8.78;54.13;101529.04;1714639;81;21647;-59
2021/12/23 06:37:16;;;;;;;11.90;5.87;;;;;;;-8.82;54.27;101527.28;1717726;81;21045;-58
2021/12/23 06:39:44;;;;;;;10.63;5.75;;;;;;;-8.82;54.26;101528.13;1739676;80;21069;-58
2021/12/23 06:42:11;;;;;;;11.88;6.22;;;;;;;-8.80;54.18;101521.78;1743883;80;21112;-59
2021/12/23 06:44:37;;;;;;;11.85;6.15;;;;;;;-8.82;54.08;101528.56;1720026;81;21049;-59
2021/12/23 06:47:05;;;;;;;10.48;6.25;;;;;;;-8.85;54.27;101529.77;1746377;80;21455;-59
2021/12/23 06:49:33;;;;;;;12.58;6.08;;;;;;;-8.83;54.42;101532.78;1746164;80;21073;-59
2021/12/23 06:52:00;;;;;;;14.03;5.35;;;;;;;-8.78;54.31;101531.16;1742069;80;21085;-59
2021/12/23 06:54:28;;;;;;;14.63;6.50;;;;;;;-8.77;54.18;101534.59;1740994;80;21053;-58
2021/12/23 06:56:55;;;;;;;10.58;5.97;;;;;;;-8.78;54.25;101531.59;1741491;81;21037;-58
2021/12/23 06:59:21;;;;;;;10.98;5.75;;;;;;;-8.70;54.34;101534.29;1744251;80;21156;-57
2021/12/23 07:01:49;;;;;;;12.90;6.58;;;;;;;-8.65;54.07;101531.41;1716925;80;21042;-57
2021/12/23 07:04:18;;;;;;;11.55;5.33;;;;;;;-8.65;53.88;101530.98;1654346;83;21200;-59
2021/12/23 07:06:56;;;;;;;11.60;6.25;;;;;;;-8.63;53.76;101538.66;1695175;83;21615;-59
2021/12/23 07:09:15;;;;;;;11.20;6.25;;;;;;;-8.66;53.75;101538.17;1692886;83;21074;-58
2021/12/23 07:11:42;;;;;;;13.78;5.72;;;;;;;-8.63;54.11;101535.68;1669193;84;21086;-58
2021/12/23 07:14:08;;;;;;;14.87;7.28;;;;;;;-8.53;53.73;101541.81;1690586;83;21138;-58
2021/12/23 07:16:38;;;;;;;12.90;6.40;;;;;;;-8.50;53.64;101542.30;1666371;84;21070;-58
2021/12/23 07:19:03;;;;;;;9.95;5.80;;;;;;;-8.51;53.78;101536.73;1690892;82;21089;-59
2021/12/23 07:21:30;;;;;;;11.60;5.65;;;;;;;-8.51;53.89;101535.03;1693668;83;21065;-59
2021/12/23 07:23:56;;;;;;;11.95;5.35;;;;;;;-8.46;53.93;101538.94;1733891;81;21208;-58
2021/12/23 07:26:23;;;;;;;20.10;10.55;;;;;;;-8.36;54.07;101542.48;1740591;80;20951;-58
2021/12/23 07:28:49;;;;;;;11.95;7.12;;;;;;;-8.29;53.76;101543.02;1711392;82;21109;-58
2021/12/23 07:31:16;;;;;;;12.58;6.65;;;;;;;-8.27;53.76;101543.89;1737051;80;21445;-57
2021/12/23 07:33:43;;;;;;;11.88;6.17;;;;;;;-8.23;53.97;101546.53;1713574;82;21014;-58
2021/12/23 07:36:09;;;;;;;12.20;5.78;;;;;;;-8.13;54.00;101543.70;1740552;80;21153;-59
2021/12/23 07:38:37;;;;;;;13.68;7.75;;;;;;;-8.02;53.87;101554.07;1734251;81;21061;-58
2021/12/23 07:41:04;;;;;;;11.80;6.42;;;;;;;-7.92;53.71;101549.53;1737775;81;21120;-59
2021/12/23 07:46:04;;;;;;;19.15;9.20;;;;;;;-7.79;53.57;101545.47;1738637;81;21105;-59
2021/12/23 07:48:31;;;;;;;24.77;7.85;;;;;;;-7.73;53.34;101544.69;1739157;80;21896;-59
2021/12/23 07:50:58;;;;;;;11.25;6.33;;;;;;;-7.74;53.31;101541.28;1712156;80;21145;-58
2021/12/23 07:53:25;;;;;;;12.75;6.05;;;;;;;-7.76;53.42;101546.80;1736497;80;21053;-58
2021/12/23 07:55:51;;;;;;;13.22;6.40;;;;;;;-7.78;53.62;101539.53;1736738;80;21511;-59
2021/12/23 07:58:18;;;;;;;11.50;6.30;;;;;;;-7.75;53.98;101538.30;1712443;82;21073;-58
2021/12/23 08:00:44;;;;;;;12.28;6.72;;;;;;;-7.69;54.09;101540.08;1739387;80;21211;-58
2021/12/23 08:03:11;;;;;;;11.35;6.35;;;;;;;-7.70;53.98;101534.11;1738481;80;21074;-57
2021/12/23 08:05:37;;;;;;;12.05;5.72;;;;;;;-7.64;54.18;101533.75;1738082;81;21041;-58
2021/12/23 08:08:04;;;;;;;9.60;5.53;;;;;;;-7.59;53.83;101535.52;1734214;81;20991;-59
2021/12/23 08:10:31;;;;;;;12.37;5.83;;;;;;;-7.58;53.99;101533.81;1737019;81;21038;-59
2021/12/23 08:12:57;;;;;;;13.45;5.97;;;;;;;-7.59;53.55;101542.34;1735562;80;21139;-59
2021/12/23 08:15:24;;;;;;;24.63;6.75;;;;;;;-7.68;53.63;101538.82;1738007;80;21117;-57
2021/12/23 08:17:51;;;;;;;12.07;5.22;;;;;;;-7.73;53.59;101538.30;1734970;81;21065;-57
2021/12/23 08:20:18;;;;;;;11.35;5.20;;;;;;;-7.77;53.85;101528.45;1739969;80;21085;-58
2021/12/23 08:22:45;;;;;;;8.70;4.20;;;;;;;-7.75;54.59;101528.48;1734866;80;22515;-58
2021/12/23 08:25:11;;;;;;;9.93;3.90;;;;;;;-7.69;54.49;101520.91;1742937;80;21225;-59
2021/12/23 08:27:39;;;;;;;11.68;5.40;;;;;;;-7.61;54.54;101517.19;1740844;80;22417;-59
2021/12/23 08:30:09;;;;;;;13.35;5.40;;;;;;;-7.54;54.24;101515.14;1740331;80;20990;-59
2021/12/23 08:32:36;;;;;;;9.88;4.17;;;;;;;-7.47;54.11;101506.27;1744379;80;21038;-59
2021/12/23 08:35:02;;;;;;;10.55;5.35;;;;;;;-7.43;54.01;101506.31;1745541;80;21033;-59
2021/12/23 08:37:29;;;;;;;11.20;6.37;;;;;;;-7.37;53.81;101512.78;1749221;80;21152;-59
2021/12/23 08:39:55;;;;;;;9.98;5.10;;;;;;;-7.38;53.76;101505.94;1714900;80;21093;-59
2021/12/23 08:42:21;;;;;;;11.38;5.28;;;;;;;-7.41;54.06;101500.39;1716553;80;21114;-58
2021/12/23 08:44:48;;;;;;;9.13;4.87;;;;;;;-7.43;53.64;101495.69;1742960;80;21518;-59
2021/12/23 08:47:15;;;;;;;10.78;5.80;;;;;;;-7.44;53.62;101489.27;1712262;80;21077;-59
2021/12/23 08:49:43;;;;;;;11.85;5.03;;;;;;;-7.45;53.45;101483.70;1747136;80;21155;-58
2021/12/23 08:52:09;;;;;;;8.80;4.00;;;;;;;-7.46;53.59;101476.47;1740021;80;21050;-58
2021/12/23 08:54:36;;;;;;;9.55;4.53;;;;;;;-7.45;53.26;101479.44;1747177;80;21006;-59
2021/12/23 08:57:04;;;;;;;9.68;4.80;;;;;;;-7.48;53.14;101476.45;1744808;80;21050;-59
2021/12/23 08:59:32;;;;;;;10.95;5.10;;;;;;;-7.56;53.03;101475.50;1746306;80;21558;-59
2021/12/23 09:01:58;;;;;;;11.80;5.33;;;;;;;-7.61;53.18;101476.29;1746090;80;21186;-58
2021/12/23 09:04:25;;;;;;;11.90;5.37;;;;;;;-7.66;53.20;101473.67;1742766;80;21578;-58
2021/12/23 09:06:51;;;;;;;11.25;4.72;;;;;;;-7.66;53.30;101473.23;1745520;80;21002;-59
2021/12/23 09:09:19;;;;;;;9.83;4.85;;;;;;;-7.67;53.44;101462.99;1747631;80;21291;-58
2021/12/23 09:11:46;;;;;;;9.83;5.10;;;;;;;-7.69;53.44;101461.70;1718159;80;21028;-58
2021/12/23 09:14:12;;;;;;;9.68;4.40;;;;;;;-7.69;53.53;101454.03;1746810;80;21857;-58
2021/12/23 09:16:40;;;;;;;11.50;4.80;;;;;;;-7.60;53.69;101446.03;1740389;80;21048;-58
2021/12/23 09:19:09;;;;;;;9.35;4.58;;;;;;;-7.51;53.44;101447.00;1718857;80;21085;-59
2021/12/23 09:21:36;;;;;;;10.00;5.03;;;;;;;-7.45;53.32;101444.92;1743581;80;21045;-59
2021/12/23 09:24:03;;;;;;;8.73;5.25;;;;;;;-7.34;53.55;101443.78;1736855;80;21664;-59
2021/12/23 09:26:34;;;;;;;9.40;4.25;;;;;;;-7.22;53.06;101440.49;1735831;80;21388;-59
2021/12/23 09:29:07;;;;;;;10.93;4.78;;;;;;;-7.14;53.06;101438.44;1742124;80;21125;-57
2021/12/23 09:34:11;;;;;;;10.13;4.22;;;;;;;-7.03;52.16;101446.64;1709284;81;21062;-57
2021/12/23 09:36:39;;;;;;;7.97;3.83;;;;;;;-7.11;51.96;101439.75;1711449;82;21063;-57
2021/12/23 09:39:08;;;;;;;7.12;3.75;;;;;;;-7.12;52.29;101437.18;1740241;80;21147;-57
2021/12/23 09:41:41;;;;;;;12.60;5.72;;;;;;;-7.08;52.05;101431.23;1743197;80;21169;-59
2021/12/23 09:44:08;;;;;;;16.42;8.88;;;;;;;-7.11;52.07;101429.92;1740988;81;22414;-59
2021/12/23 09:46:36;;;;;;;15.85;9.10;;;;;;;-7.13;52.21;101424.82;1742507;81;21121;-58
2021/12/23 09:49:04;;;;;;;11.75;6.85;;;;;;;-7.06;52.31;101429.97;1736450;81;21042;-58
2021/12/23 09:51:32;;;;;;;11.70;6.37;;;;;;;-7.05;51.85;101425.30;1741072;80;21131;-58
2021/12/23 09:54:03;;;;;;;12.35;6.30;;;;;;;-7.04;52.21;101410.37;1738581;81;21018;-59
2021/12/23 09:56:31;;;;;;;32.42;11.10;;;;;;;-6.95;52.17;101411.75;1735592;80;21506;-58
2021/12/23 09:58:58;;;;;;;15.13;5.03;;;;;;;-6.88;51.93;101407.53;1741395;81;21511;-57
2021/12/23 10:01:28;;;;;;;8.63;3.65;;;;;;;-6.82;51.91;101396.08;1739958;81;21058;-57
2021/12/23 10:03:54;;;;;;;9.23;4.70;;;;;;;-6.77;51.77;101398.25;1741428;80;21128;-58
2021/12/23 10:06:23;;;;;;;12.37;4.62;;;;;;;-6.68;51.59;101393.61;1712012;80;21038;-58
2021/12/23 10:08:49;;;;;;;9.20;5.00;;;;;;;-6.61;51.56;101387.25;1738168;81;21699;-57
2021/12/23 10:11:33;;;;;;;10.68;5.12;;;;;;;-6.56;51.32;101374.05;1713751;82;21002;-57
2021/12/23 10:30:25;;;;;;;11.65;4.75;;;;;;;-6.24;50.65;101369.54;1719264;80;21035;-58
2021/12/23 10:38:28;;;;;;;9.95;5.03;;;;;;;-6.13;50.58;101359.80;1712666;81;21149;-57
2021/12/23 10:40:58;;;;;;;13.62;5.20;;;;;;;-6.10;50.50;101364.91;1717912;80;21058;-58
2021/12/23 10:43:30;;;;;;;13.08;5.70;;;;;;;-6.08;50.74;101361.52;1738752;80;21135;-58
2021/12/23 10:46:02;;;;;;;11.05;5.87;;;;;;;-6.00;50.60;101354.72;1738331;80;21060;-58
2021/12/23 10:48:31;;;;;;;12.85;6.00;;;;;;;-5.95;50.29;101353.43;1739239;80;21028;-57
2021/12/23 10:51:06;;;;;;;8.43;4.60;;;;;;;-5.92;50.32;101347.44;1741458;80;21514;-57
2021/12/23 10:53:44;;;;;;;9.28;4.47;;;;;;;-5.90;50.24;101353.02;1743480;80;21101;-58
2021/12/23 10:59:09;;;;;;;10.20;3.80;;;;;;;-5.81;50.17;101344.06;1723110;80;21066;-59
2021/12/23 11:02:11;;;;;;;12.13;4.60;;;;;;;-5.83;50.16;101336.80;1738547;80;21062;-59
2021/12/23 11:07:44;;;;;;;10.40;4.72;;;;;;;-5.76;49.99;101332.98;1730303;80;21025;-58
2021/12/23 11:38:12;;;;;;;10.50;4.75;;;;;;;-5.75;49.83;101296.22;1683360;83;21168;-58
2021/12/23 11:43:25;;;;;;;10.95;4.92;;;;;;;-5.70;49.88;101291.95;1737385;80;21097;-58
2021/12/23 11:45:30;;;;;;;13.32;5.65;;;;;;;-5.65;50.05;101293.69;1710951;80;21614;-58
2021/12/23 11:47:57;;;;;;;8.95;4.60;;;;;;;-5.57;49.86;101293.67;1739026;80;21063;-57
2021/12/23 11:50:31;;;;;;;9.70;5.35;;;;;;;-5.52;49.78;101294.53;1719332;80;21200;-60
2021/12/23 11:52:53;;;;;;;17.98;5.95;;;;;;;-5.52;49.80;101293.25;1735773;80;21087;-57
2021/12/23 11:55:19;;;;;;;10.18;5.08;;;;;;;-5.46;50.04;101302.25;1693880;80;21543;-58
2021/12/23 11:57:45;;;;;;;11.48;5.70;;;;;;;-5.33;49.95;101293.27;1739119;80;21038;-57
2021/12/23 12:00:20;;;;;;;10.55;5.97;;;;;;;-5.21;49.55;101292.00;1740250;80;21077;-57
2021/12/23 12:02:59;;;;;;;12.23;6.53;;;;;;;-5.20;49.46;101295.41;1736467;80;21046;-58
2021/12/23 12:05:26;;;;;;;17.52;6.42;;;;;;;-5.25;49.52;101288.55;1715595;80;21863;-58
2021/12/23 12:08:13;;;;;;;12.75;6.08;;;;;;;-5.25;49.82;101287.27;1743498;80;21050;-59
2021/12/23 12:10:41;;;;;;;12.47;5.78;;;;;;;-5.21;49.72;101288.15;1734895;80;21051;-58
2021/12/23 12:13:10;;;;;;;12.80;5.87;;;;;;;-5.23;49.84;101286.87;1718110;82;21117;-58
2021/12/23 12:15:47;;;;;;;11.85;6.35;;;;;;;-5.20;49.82;101285.15;1736180;80;21654;-59
2021/12/23 12:18:15;;;;;;;13.22;6.70;;;;;;;-5.25;49.80;101280.02;1740290;80;21094;-58
2021/12/23 12:20:45;;;;;;;12.58;6.37;;;;;;;-5.26;49.83;101289.87;1738510;80;21627;-57
2021/12/23 12:23:16;;;;;;;11.85;6.03;;;;;;;-5.30;49.88;101284.29;1740950;80;21101;-58
2021/12/23 12:25:48;;;;;;;13.08;7.35;;;;;;;-5.34;50.11;101281.31;1725836;80;21065;-58
2021/12/23 12:28:18;;;;;;;13.62;7.35;;;;;;;-5.35;50.00;101282.16;1751621;80;21122;-58
2021/12/23 12:30:59;;;;;;;13.10;6.58;;;;;;;-5.39;50.18;101288.16;1724155;80;20990;-58
2021/12/23 12:33:34;;;;;;;11.70;6.53;;;;;;;-5.49;50.53;101288.13;1751701;80;21538;-57